Search for airport 
image banner adimage banner ad
image banner ad

VARK - Rajkot

Located in Rajkot, India

ICAO - VARK, IATA - RAJ

Data provided by Airmate  

General information

Coordinates: N22°18'34" E70°46'46"
Elevation is 441 feet MSL.
 
Rated:
View ratings: [VIEW]


View others Airports in Gujarat

Operational data

Open for public use
Current time UTC:
Current local time:
Weather
TAF: TAF VARK 011400Z 0115/0124 28010KT 6000 FEW020 BECMG 0122/0124 26005KT NSC
View NOTAMs / SUP AIP / TFR affecting this airport [VIEW]
Communications frequencies: [VIEW]

Runways:

RWY identifierQFULength (ft)Width (ft)SurfaceLDA (ft)
0547°6047148ASP
23227°6047148

Airport contact information

Address: Rajkot India

Satellite view of VARK